createdAt,value
2023-01-08T00:00:21.486Z,1.00
2023-01-08T00:05:29.981Z,1.00
2023-01-08T00:10:39.131Z,1.00
2023-01-08T00:15:46.104Z,1.00
2023-01-08T00:20:54.311Z,1.00
2023-01-08T00:26:06.659Z,1.00
2023-01-08T00:31:15.308Z,1.00
2023-01-08T00:36:22.597Z,1.00
2023-01-08T00:41:29.950Z,1.00
2023-01-08T00:46:39.675Z,1.00
2023-01-08T00:51:46.367Z,1.00
2023-01-08T00:56:58.878Z,1.00
2023-01-08T01:02:07.433Z,1.00
2023-01-08T01:07:14.982Z,1.00
2023-01-08T01:12:22.160Z,1.90
2023-01-08T01:17:29.360Z,30.90
2023-01-08T01:22:36.803Z,1.00
2023-01-08T01:27:43.763Z,1.00
2023-01-08T01:32:50.832Z,1.00
2023-01-08T01:37:57.224Z,1.00
2023-01-08T01:43:04.018Z,60.90
2023-01-08T01:48:14.114Z,1.00
2023-01-08T01:53:29.970Z,23.70
2023-01-08T01:58:37.964Z,7.10
2023-01-08T02:03:44.964Z,99.90
2023-01-08T02:09:05.483Z,99.90
2023-01-08T02:14:30.288Z,99.90
2023-01-08T02:19:54.274Z,99.90
2023-01-08T02:25:17.596Z,99.90
2023-01-08T02:30:25.754Z,25.70
2023-01-08T02:35:42.862Z,6.30
2023-01-08T02:40:55.922Z,56.70
2023-01-08T02:46:04.436Z,85.80
2023-01-08T02:51:32.643Z,99.90
2023-01-08T02:56:43.781Z,99.90
2023-01-08T03:01:52.942Z,99.90
2023-01-08T03:07:00.487Z,96.00
2023-01-08T03:12:26.964Z,99.90
2023-01-08T03:17:43.119Z,99.90
2023-01-08T03:22:56.367Z,99.50
2023-01-08T03:28:08.597Z,99.90
2023-01-08T03:33:18.019Z,99.90
2023-01-08T03:38:29.189Z,99.90
2023-01-08T03:43:37.355Z,99.90
2023-01-08T03:48:46.157Z,99.90
2023-01-08T03:53:58.693Z,99.90
2023-01-08T03:59:05.851Z,99.90
2023-01-08T04:04:14.339Z,99.90
2023-01-08T04:09:22.196Z,99.90
2023-01-08T04:14:29.153Z,99.90
2023-01-08T04:19:36.186Z,99.90
2023-01-08T04:24:43.639Z,99.90
2023-01-08T04:29:50.469Z,99.90
2023-01-08T04:34:57.863Z,99.90
2023-01-08T04:40:06.194Z,99.90
2023-01-08T04:45:13.425Z,99.90
2023-01-08T04:50:20.929Z,99.90
2023-01-08T04:55:33.650Z,99.90
2023-01-08T05:00:42.778Z,99.90
2023-01-08T05:05:50.260Z,99.90
2023-01-08T05:11:04.965Z,99.90
2023-01-08T05:16:17.612Z,99.90
2023-01-08T05:21:30.016Z,99.90
2023-01-08T05:26:37.326Z,99.90
2023-01-08T05:31:43.962Z,99.90
2023-01-08T05:36:51.645Z,99.90
2023-01-08T05:41:58.684Z,99.90
2023-01-08T05:47:06.229Z,99.90
2023-01-08T05:52:13.510Z,99.90
2023-01-08T05:57:19.971Z,99.90
2023-01-08T06:02:27.387Z,99.90
2023-01-08T06:07:34.361Z,99.90
2023-01-08T06:12:41.700Z,99.90
2023-01-08T06:17:49.253Z,99.90
2023-01-08T06:22:57.681Z,99.90
2023-01-08T06:28:05.557Z,99.90
2023-01-08T06:33:12.795Z,99.90
2023-01-08T06:38:21.521Z,99.90
2023-01-08T06:43:29.084Z,99.90
2023-01-08T06:48:36.590Z,99.90
2023-01-08T06:53:50.481Z,99.90
2023-01-08T06:58:57.699Z,99.90
2023-01-08T07:04:05.506Z,99.90
2023-01-08T07:09:17.430Z,99.90
2023-01-08T07:14:24.565Z,99.90
2023-01-08T07:19:32.660Z,99.90
2023-01-08T07:24:40.155Z,99.90
2023-01-08T07:29:50.950Z,99.90
2023-01-08T07:35:00.123Z,99.90
2023-01-08T07:40:08.053Z,99.90
2023-01-08T07:45:16.791Z,99.90
2023-01-08T07:50:25.900Z,99.90
2023-01-08T07:55:33.614Z,99.90
2023-01-08T08:00:40.694Z,99.90
2023-01-08T08:05:47.791Z,99.90
2023-01-08T08:10:56.633Z,99.90
2023-01-08T08:16:07.480Z,99.90
2023-01-08T08:21:16.691Z,99.90
2023-01-08T08:26:24.338Z,99.90
2023-01-08T08:31:31.588Z,99.90
2023-01-08T08:36:38.285Z,99.90
2023-01-08T08:41:45.523Z,99.90
2023-01-08T08:46:52.891Z,99.90
2023-01-08T08:52:00.493Z,99.90
2023-01-08T08:57:06.278Z,99.90
2023-01-08T09:02:14.247Z,99.90
2023-01-08T09:07:21.289Z,99.90
2023-01-08T09:12:28.808Z,99.90
2023-01-08T09:17:37.068Z,99.90
2023-01-08T09:22:46.195Z,96.10
2023-01-08T09:28:06.052Z,31.70
2023-01-08T09:33:13.192Z,1.00
2023-01-08T09:38:21.002Z,1.00
2023-01-08T09:43:31.974Z,1.00
2023-01-08T09:48:41.920Z,1.00
2023-01-08T09:53:56.367Z,1.00
2023-01-08T09:59:06.553Z,1.00
2023-01-08T10:04:27.283Z,1.00
2023-01-08T10:09:35.540Z,1.00
2023-01-08T10:14:46.251Z,1.00
2023-01-08T10:19:52.894Z,1.00
2023-01-08T10:25:01.702Z,1.00
2023-01-08T10:30:10.293Z,1.00
2023-01-08T10:35:26.120Z,6.30
2023-01-08T10:40:48.828Z,66.70
2023-01-08T10:46:04.806Z,20.20
2023-01-08T10:51:24.441Z,46.20
2023-01-08T10:56:35.680Z,41.50
2023-01-08T11:01:47.720Z,50.80
2023-01-08T11:06:58.886Z,18.30
2023-01-08T11:12:05.887Z,30.80
2023-01-08T11:17:14.530Z,40.00
2023-01-08T11:22:26.924Z,32.30
2023-01-08T11:27:38.228Z,45.20
2023-01-08T11:33:09.452Z,48.80
2023-01-08T11:38:18.206Z,16.40
2023-01-08T11:43:42.370Z,16.80
2023-01-08T11:49:22.775Z,24.20
2023-01-08T11:54:44.594Z,15.40
2023-01-08T12:00:22.449Z,20.80
2023-01-08T12:05:49.963Z,27.70
2023-01-08T12:11:27.345Z,77.10
2023-01-08T12:16:53.823Z,30.00
2023-01-08T12:22:35.015Z,36.20
2023-01-08T12:28:08.349Z,33.30
2023-01-08T12:33:32.556Z,43.40
2023-01-08T12:38:48.034Z,22.90
2023-01-08T12:44:02.792Z,43.70
2023-01-08T12:49:12.941Z,62.10
2023-01-08T12:54:46.203Z,69.00
2023-01-08T13:00:06.436Z,71.30
2023-01-08T13:05:24.615Z,72.70
2023-01-08T13:10:53.985Z,77.90
2023-01-08T13:16:24.662Z,74.00
2023-01-08T13:21:38.135Z,60.60
2023-01-08T13:26:45.033Z,70.30
2023-01-08T13:31:51.939Z,77.20
2023-01-08T13:37:00.722Z,80.20
2023-01-08T13:42:29.022Z,85.40
2023-01-08T13:47:38.757Z,68.10
2023-01-08T13:53:01.111Z,61.70
2023-01-08T13:58:15.585Z,63.20
2023-01-08T14:03:28.600Z,74.70
2023-01-08T14:08:35.960Z,69.20
2023-01-08T14:13:44.268Z,61.20
2023-01-08T14:18:53.579Z,70.00
2023-01-08T14:24:00.911Z,68.50
2023-01-08T14:29:21.017Z,67.00
2023-01-08T14:34:31.261Z,59.50
2023-01-08T14:39:42.720Z,74.30
2023-01-08T14:45:05.889Z,69.60
2023-01-08T14:50:22.829Z,68.90
2023-01-08T14:55:32.182Z,74.90
2023-01-08T15:06:14.172Z,73.50
2023-01-08T15:11:31.185Z,72.10
2023-01-08T15:16:42.900Z,76.00
2023-01-08T15:22:02.032Z,70.60
2023-01-08T15:27:11.827Z,71.50
2023-01-08T15:32:23.543Z,43.30
2023-01-08T15:37:32.507Z,99.90
2023-01-08T15:43:00.356Z,99.90
2023-01-08T15:48:09.375Z,99.90
2023-01-08T15:53:20.109Z,99.90
2023-01-08T15:58:26.899Z,99.90
2023-01-08T16:03:34.578Z,99.90
2023-01-08T16:08:43.037Z,1.00
2023-01-08T16:13:53.802Z,1.00
2023-01-08T16:19:02.261Z,1.00
2023-01-08T16:24:15.519Z,1.00
2023-01-08T16:29:23.056Z,1.00
2023-01-08T16:34:33.815Z,1.00
2023-01-08T16:39:54.741Z,1.00
2023-01-08T16:45:03.256Z,1.00
2023-01-08T16:50:12.766Z,1.00
2023-01-08T16:55:19.828Z,1.00
2023-01-08T17:00:25.757Z,1.00
2023-01-08T17:05:32.537Z,1.00
2023-01-08T17:10:42.148Z,1.00
2023-01-08T17:15:48.873Z,1.00
2023-01-08T17:20:56.564Z,1.00
2023-01-08T17:26:13.608Z,1.00
2023-01-08T17:31:21.590Z,1.00
2023-01-08T17:36:29.069Z,1.00
2023-01-08T17:41:55.605Z,1.00
2023-01-08T17:47:12.008Z,1.00
2023-01-08T17:52:22.908Z,1.00
2023-01-08T17:57:32.124Z,1.00
2023-01-08T18:02:40.296Z,1.00
2023-01-08T18:07:48.310Z,1.00
2023-01-08T18:12:56.139Z,1.00
2023-01-08T18:18:03.792Z,1.00
2023-01-08T18:23:10.895Z,1.00
2023-01-08T18:28:18.289Z,1.00
2023-01-08T18:33:25.832Z,1.00
2023-01-08T18:38:39.182Z,1.00
2023-01-08T18:43:47.257Z,1.00
2023-01-08T18:48:55.566Z,1.00
2023-01-08T18:54:04.177Z,1.00
2023-01-08T18:59:12.799Z,1.00
2023-01-08T19:04:19.566Z,1.00
2023-01-08T19:09:27.278Z,1.00
2023-01-08T19:14:34.275Z,1.00
2023-01-08T19:19:41.991Z,1.00
2023-01-08T19:24:48.408Z,1.00
2023-01-08T19:29:55.785Z,1.00
2023-01-08T19:35:03.136Z,1.00
2023-01-08T19:40:10.999Z,1.00
2023-01-08T19:45:19.372Z,1.00
2023-01-08T19:50:26.361Z,1.00
2023-01-08T19:55:36.431Z,1.00
2023-01-08T20:00:43.019Z,1.00
2023-01-08T20:05:49.249Z,1.00
2023-01-08T20:10:57.362Z,1.00
2023-01-08T20:16:09.824Z,1.00
2023-01-08T20:21:24.488Z,1.00
2023-01-08T20:26:33.843Z,1.00
2023-01-08T20:31:42.788Z,1.00
2023-01-08T20:36:50.239Z,1.00
2023-01-08T20:42:04.405Z,1.00
2023-01-08T20:47:05.996Z,1.00
2023-01-08T20:52:14.959Z,1.00
2023-01-08T20:57:21.451Z,1.00
2023-01-08T21:02:29.357Z,1.00
2023-01-08T21:07:36.268Z,1.00
2023-01-08T21:12:42.843Z,1.00
2023-01-08T21:17:50.467Z,1.00
2023-01-08T21:23:09.575Z,1.00
2023-01-08T21:28:14.863Z,1.00
2023-01-08T21:33:22.260Z,1.00
2023-01-08T21:38:27.781Z,1.00
2023-01-08T21:43:53.165Z,1.00
2023-01-08T21:49:00.006Z,1.00
2023-01-08T21:54:07.640Z,1.00
2023-01-08T21:59:34.587Z,1.00
2023-01-08T22:04:41.323Z,1.00
2023-01-08T22:09:48.763Z,1.00
2023-01-08T22:14:57.700Z,1.00
2023-01-08T22:20:07.121Z,1.00
2023-01-08T22:25:14.576Z,1.00
2023-01-08T22:30:23.229Z,1.00
2023-01-08T22:35:30.280Z,1.00
2023-01-08T22:40:40.356Z,99.90
2023-01-08T22:45:55.677Z,21.10
2023-01-08T22:51:06.304Z,23.80
2023-01-08T22:56:15.057Z,99.90
2023-01-08T23:01:26.164Z,1.00
2023-01-08T23:06:34.955Z,31.30
2023-01-08T23:11:42.507Z,99.90
2023-01-08T23:16:49.888Z,29.60
2023-01-08T23:21:57.395Z,94.00
2023-01-08T23:27:05.401Z,1.00
2023-01-08T23:32:14.427Z,39.70
2023-01-08T23:37:22.719Z,99.90
2023-01-08T23:42:31.229Z,80.80
2023-01-08T23:47:38.186Z,61.60
2023-01-08T23:52:45.581Z,1.00
2023-01-08T23:57:52.689Z,1.00
